createdAt,value
2022-12-23T00:00:24.509Z,100019.94
2022-12-23T00:02:52.377Z,100012.03
2022-12-23T00:05:20.392Z,100005.91
2022-12-23T00:07:48.087Z,100001.34
2022-12-23T00:10:15.838Z,99996.06
2022-12-23T00:13:00.928Z,100001.06
2022-12-23T00:15:30.061Z,100005.25
2022-12-23T00:17:57.853Z,100007.88
2022-12-23T00:20:25.639Z,100009.53
2022-12-23T00:23:08.351Z,100011.50
2022-12-23T00:25:44.864Z,100023.56
2022-12-23T00:28:14.376Z,100019.25
2022-12-23T00:30:51.019Z,100019.94
2022-12-23T00:33:21.049Z,100026.19
2022-12-23T00:35:49.466Z,100030.50
2022-12-23T00:38:38.146Z,100018.03
2022-12-23T00:41:23.433Z,100019.94
2022-12-23T00:43:51.140Z,100029.56
2022-12-23T00:46:20.410Z,100020.91
2022-12-23T00:49:05.972Z,100019.25
2022-12-23T00:51:33.653Z,100025.22
2022-12-23T00:54:01.338Z,100019.13
2022-12-23T00:56:29.063Z,100032.19
2022-12-23T00:58:56.911Z,100043.69
2022-12-23T01:01:43.659Z,100031.38
2022-12-23T01:04:30.124Z,100033.72
2022-12-23T01:06:57.938Z,100044.13
2022-12-23T01:09:26.227Z,100038.84
2022-12-23T01:11:53.928Z,100040.38
2022-12-23T01:14:22.169Z,100042.19
2022-12-23T01:16:51.382Z,100051.06
2022-12-23T01:19:19.140Z,100051.06
2022-12-23T01:21:46.904Z,100066.06
2022-12-23T01:24:14.542Z,100052.72
2022-12-23T01:26:42.347Z,100059.72
2022-12-23T01:29:10.094Z,100057.06
2022-12-23T01:31:37.849Z,100058.72
2022-12-23T01:34:07.093Z,100070.28
2022-12-23T01:36:34.798Z,100070.28
2022-12-23T01:39:02.519Z,100072.75
2022-12-23T01:41:49.916Z,100074.69
2022-12-23T01:44:52.710Z,100078.88
2022-12-23T01:47:25.016Z,100077.47
2022-12-23T01:49:57.746Z,100090.66
2022-12-23T01:52:25.691Z,100091.38
2022-12-23T01:54:53.615Z,100089.84
2022-12-23T01:57:21.504Z,100089.69
2022-12-23T02:00:07.186Z,100103.59
2022-12-23T02:02:55.013Z,100097.59
2022-12-23T02:05:24.499Z,100100.25
2022-12-23T02:08:11.070Z,100109.13
2022-12-23T02:10:50.344Z,100115.00
2022-12-23T02:13:22.295Z,100106.50
2022-12-23T02:16:10.010Z,100130.00
2022-12-23T02:19:03.165Z,100117.78
2022-12-23T02:21:57.599Z,100120.66
2022-12-23T02:24:57.489Z,100125.25
2022-12-23T02:27:28.654Z,100126.91
2022-12-23T02:30:26.809Z,100124.44
2022-12-23T02:33:22.282Z,100135.81
2022-12-23T02:35:58.097Z,100139.44
2022-12-23T02:38:29.925Z,100143.03
2022-12-23T02:41:06.054Z,100148.56
2022-12-23T02:43:41.088Z,100150.22
2022-12-23T02:46:13.448Z,100151.34
2022-12-23T02:48:45.519Z,100165.38
2022-12-23T02:51:15.507Z,100166.34
2022-12-23T02:53:46.135Z,100154.66
2022-12-23T02:56:15.319Z,100163.25
2022-12-23T02:58:46.723Z,100173.56
2022-12-23T03:01:16.577Z,100176.22
2022-12-23T03:03:45.512Z,100185.09
2022-12-23T03:06:19.357Z,100187.00
2022-12-23T03:08:47.317Z,100178.53
2022-12-23T03:11:16.756Z,100179.50
2022-12-23T03:14:00.877Z,100191.47
2022-12-23T03:16:35.377Z,100189.66
2022-12-23T03:19:09.444Z,100202.72
2022-12-23T03:21:41.069Z,100202.84
2022-12-23T03:24:16.969Z,100193.97
2022-12-23T03:26:52.945Z,100204.50
2022-12-23T03:29:23.177Z,100202.72
2022-12-23T03:31:54.088Z,100192.13
2022-12-23T03:34:24.286Z,100210.75
2022-12-23T03:36:53.898Z,100216.03
2022-12-23T03:39:23.830Z,100213.41
2022-12-23T03:41:55.323Z,100215.22
2022-12-23T03:44:26.277Z,100206.88
2022-12-23T03:46:58.398Z,100211.03
2022-12-23T03:49:30.441Z,100200.72
2022-12-23T03:52:02.336Z,100197.16
2022-12-23T03:54:33.134Z,100201.72
2022-12-23T03:57:03.613Z,100207.81
2022-12-23T03:59:33.377Z,100199.06
2022-12-23T04:02:08.382Z,100194.75
2022-12-23T04:04:52.188Z,100202.44
2022-12-23T04:07:23.859Z,100204.09
2022-12-23T04:09:52.527Z,100207.44
2022-12-23T04:12:22.171Z,100205.75
2022-12-23T04:14:50.286Z,100206.88
2022-12-23T04:17:19.921Z,100210.34
2022-12-23T04:19:47.829Z,100208.75
2022-12-23T04:22:16.490Z,100222.94
2022-12-23T04:24:45.289Z,100225.72
2022-12-23T04:27:14.782Z,100231.13
2022-12-23T04:29:43.062Z,100226.94
2022-12-23T04:32:10.761Z,100227.91
2022-12-23T04:34:39.941Z,100227.91
2022-12-23T04:37:07.684Z,100222.78
2022-12-23T04:39:35.534Z,100230.56
2022-12-23T04:42:03.246Z,100222.91
2022-12-23T04:44:30.963Z,100228.19
2022-12-23T04:46:58.712Z,100228.44
2022-12-23T04:49:26.438Z,100241.75
2022-12-23T04:51:55.570Z,100247.88
2022-12-23T04:54:23.320Z,100258.41
2022-12-23T04:56:51.103Z,100259.38
2022-12-23T04:59:18.903Z,100260.34
2022-12-23T05:01:46.773Z,100267.31
2022-12-23T05:04:14.694Z,100269.94
2022-12-23T05:06:42.524Z,100273.53
2022-12-23T05:09:11.633Z,100271.88
2022-12-23T05:11:42.277Z,100275.22
2022-12-23T05:14:10.476Z,100266.59
2022-12-23T05:16:38.325Z,100267.31
2022-12-23T05:19:06.072Z,100267.16
2022-12-23T05:21:33.788Z,100261.78
2022-12-23T05:24:01.459Z,100260.09
2022-12-23T05:26:30.633Z,100267.06
2022-12-23T05:28:58.323Z,100261.78
2022-12-23T05:31:26.013Z,100265.34
2022-12-23T05:33:53.750Z,100259.66
2022-12-23T05:36:22.203Z,100257.03
2022-12-23T05:38:49.929Z,100260.03
2022-12-23T05:41:18.040Z,100276.00
2022-12-23T05:43:47.176Z,100276.91
2022-12-23T05:46:14.937Z,100287.50
2022-12-23T05:48:42.812Z,100285.00
2022-12-23T05:51:10.547Z,100281.91
2022-12-23T05:53:38.237Z,100298.19
2022-12-23T05:56:06.869Z,100295.44
2022-12-23T05:58:34.694Z,100302.63
2022-12-23T06:01:04.655Z,100303.56
2022-12-23T06:03:32.677Z,100308.03
2022-12-23T06:06:00.616Z,100312.22
2022-12-23T06:08:28.337Z,100304.53
2022-12-23T06:10:56.080Z,100304.53
2022-12-23T06:13:23.952Z,100311.06
2022-12-23T06:15:51.686Z,100321.09
2022-12-23T06:18:20.778Z,100324.94
2022-12-23T06:20:49.074Z,100328.53
2022-12-23T06:23:16.979Z,100324.38
2022-12-23T06:25:44.813Z,100321.00
2022-12-23T06:28:12.544Z,100331.56
2022-12-23T06:30:40.324Z,100315.28
2022-12-23T06:33:08.028Z,100329.06
2022-12-23T06:35:37.137Z,100333.75
2022-12-23T06:38:10.336Z,100326.06
2022-12-23T06:40:40.161Z,100334.59
2022-12-23T06:43:07.934Z,100338.91
2022-12-23T06:45:35.723Z,100338.75
2022-12-23T06:48:03.475Z,100330.72
2022-12-23T06:50:31.235Z,100329.75
2022-12-23T06:53:00.374Z,100324.47
2022-12-23T06:55:28.123Z,100337.44
2022-12-23T06:57:55.859Z,100341.72
2022-12-23T07:00:23.833Z,100345.47
2022-12-23T07:02:51.718Z,100346.31
2022-12-23T07:05:19.481Z,100338.63
2022-12-23T07:07:47.355Z,100336.25
2022-12-23T07:10:16.552Z,100333.25
2022-12-23T07:12:50.350Z,100347.28
2022-12-23T07:15:18.557Z,100353.38
2022-12-23T07:17:46.339Z,100346.81
2022-12-23T07:20:14.681Z,100365.97
2022-12-23T07:22:42.596Z,100373.88
2022-12-23T07:25:10.816Z,100384.41
2022-12-23T07:27:40.064Z,100385.25
2022-12-23T07:30:09.099Z,100390.66
2022-12-23T07:32:36.893Z,100390.66
2022-12-23T07:35:04.905Z,100394.25
2022-12-23T07:37:32.640Z,100401.06
2022-12-23T07:40:06.477Z,100394.13
2022-12-23T07:42:45.702Z,100399.41
2022-12-23T07:45:15.856Z,100402.03
2022-12-23T07:47:43.772Z,100397.03
2022-12-23T07:50:12.156Z,100398.44
2022-12-23T07:52:40.424Z,100389.00
2022-12-23T07:55:08.822Z,100402.19
2022-12-23T07:57:38.240Z,100398.56
2022-12-23T08:00:08.127Z,100399.53
2022-12-23T08:02:37.344Z,100396.91
2022-12-23T08:05:05.729Z,100403.97
2022-12-23T08:07:33.645Z,100401.69
2022-12-23T08:10:01.507Z,100397.59
2022-12-23T08:12:29.278Z,100392.34
2022-12-23T08:14:56.945Z,100396.53
2022-12-23T08:17:27.535Z,100390.41
2022-12-23T08:19:56.826Z,100396.53
2022-12-23T08:22:24.657Z,100386.94
2022-12-23T08:24:52.665Z,100388.03
2022-12-23T08:27:20.612Z,100384.41
2022-12-23T08:29:48.297Z,100372.34
2022-12-23T08:32:16.041Z,100376.78
2022-12-23T08:34:43.852Z,100382.06
2022-12-23T08:37:12.997Z,100383.72
2022-12-23T08:39:40.956Z,100372.47
2022-12-23T08:42:09.301Z,100367.06
2022-12-23T08:44:36.993Z,100364.56
2022-12-23T08:47:04.722Z,100357.84
2022-12-23T08:49:32.442Z,100380.81
2022-12-23T08:52:00.190Z,100367.06
2022-12-23T08:54:29.527Z,100370.28
2022-12-23T08:56:57.313Z,100357.09
2022-12-23T08:59:25.060Z,100365.84
2022-12-23T09:01:52.847Z,100363.47
2022-12-23T09:04:20.656Z,100363.19
2022-12-23T09:06:48.377Z,100365.72
2022-12-23T09:09:16.655Z,100375.31
2022-12-23T09:11:45.758Z,100377.94
2022-12-23T09:14:13.511Z,100374.56
2022-12-23T09:16:41.237Z,100369.91
2022-12-23T09:19:09.153Z,100370.03
2022-12-23T09:21:37.050Z,100366.44
2022-12-23T09:24:05.323Z,100353.47
2022-12-23T09:26:33.399Z,100352.41
2022-12-23T09:29:02.564Z,100353.25
2022-12-23T09:31:36.101Z,100349.91
2022-12-23T09:34:04.959Z,100340.75
2022-12-23T09:36:32.773Z,100347.72
2022-12-23T09:39:00.783Z,100341.59
2022-12-23T09:41:42.870Z,100334.38
2022-12-23T09:44:23.567Z,100316.34
2022-12-23T09:46:53.666Z,100328.88
2022-12-23T09:49:22.243Z,100334.03
2022-12-23T09:51:50.564Z,100321.53
2022-12-23T09:54:21.310Z,100315.81
2022-12-23T09:56:53.246Z,100308.34
2022-12-23T09:59:30.917Z,100301.41
2022-12-23T10:02:02.189Z,100308.34
2022-12-23T10:04:40.988Z,100304.75
2022-12-23T10:07:29.209Z,100311.94
2022-12-23T10:09:57.798Z,100332.22
2022-12-23T10:12:39.160Z,100331.66
2022-12-23T10:15:19.841Z,100332.72
2022-12-23T10:17:48.243Z,100321.34
2022-12-23T10:20:19.168Z,100306.03
2022-12-23T10:22:47.479Z,100310.78
2022-12-23T10:25:17.049Z,100313.19
2022-12-23T10:27:45.287Z,100307.78
2022-12-23T10:30:57.309Z,100305.00
2022-12-23T10:33:13.187Z,100290.16
2022-12-23T10:35:46.634Z,100298.06
2022-12-23T10:38:23.560Z,100289.19
2022-12-23T10:40:55.878Z,100286.69
2022-12-23T10:43:28.361Z,100276.13
2022-12-23T10:46:00.869Z,100267.38
2022-12-23T10:48:38.777Z,100273.50
2022-12-23T10:51:12.502Z,100270.84
2022-12-23T10:53:42.175Z,100264.75
2022-12-23T10:56:10.044Z,100265.59
2022-12-23T10:58:41.688Z,100260.16
2022-12-23T11:01:21.745Z,100247.25
2022-12-23T11:03:57.779Z,100250.31
2022-12-23T11:06:26.377Z,100236.44
2022-12-23T11:08:57.709Z,100237.13
2022-12-23T11:11:25.404Z,100247.53
2022-12-23T11:13:53.096Z,100242.41
2022-12-23T11:16:26.161Z,100224.78
2022-12-23T11:18:59.601Z,100223.72
2022-12-23T11:21:28.083Z,100197.31
2022-12-23T11:24:19.048Z,100207.59
2022-12-23T11:26:48.661Z,100196.22
2022-12-23T11:29:22.802Z,100196.34
2022-12-23T11:31:52.056Z,100191.09
2022-12-23T11:34:22.536Z,100187.03
2022-12-23T11:36:58.755Z,100193.84
2022-12-23T11:39:33.247Z,100182.47
2022-12-23T11:42:07.789Z,100188.44
2022-12-23T11:44:40.033Z,100181.50
2022-12-23T11:47:29.288Z,100179.84
2022-12-23T11:49:58.286Z,100176.47
2022-12-23T11:52:26.878Z,100172.16
2022-12-23T11:54:56.058Z,100173.84
2022-12-23T11:57:27.509Z,100174.66
2022-12-23T11:59:58.869Z,100169.41
2022-12-23T12:02:36.191Z,100156.47
2022-12-23T12:05:07.136Z,100157.88
2022-12-23T12:07:35.036Z,100163.16
2022-12-23T12:10:03.486Z,100153.72
2022-12-23T12:12:31.471Z,100150.09
2022-12-23T12:15:00.371Z,100150.09
2022-12-23T12:17:33.857Z,100135.09
2022-12-23T12:20:05.879Z,100132.38
2022-12-23T12:22:38.404Z,100120.13
2022-12-23T12:25:15.365Z,100123.88
2022-12-23T12:27:45.493Z,100108.19
2022-12-23T12:30:17.907Z,100084.59
2022-12-23T12:32:54.600Z,100085.13
2022-12-23T12:35:24.519Z,100073.47
2022-12-23T12:37:54.779Z,100064.88
2022-12-23T12:40:27.741Z,100070.97
2022-12-23T12:43:00.677Z,100055.13
2022-12-23T12:45:33.457Z,100071.94
2022-12-23T12:48:18.631Z,100055.16
2022-12-23T12:50:56.080Z,100047.53
2022-12-23T12:53:23.963Z,100042.94
2022-12-23T12:55:54.465Z,100043.91
2022-12-23T12:58:23.951Z,100033.38
2022-12-23T13:01:03.629Z,100030.72
2022-12-23T13:04:00.091Z,100032.41
2022-12-23T13:06:33.155Z,100025.06
2022-12-23T13:09:04.263Z,100023.25
2022-12-23T13:11:44.002Z,100028.53
2022-12-23T13:14:20.847Z,100017.97
2022-12-23T13:16:53.534Z,100017.16
2022-12-23T13:19:28.643Z,100017.97
2022-12-23T13:22:00.134Z,100007.44
2022-12-23T13:24:33.412Z,99992.44
2022-12-23T13:27:07.773Z,99998.78
2022-12-23T13:29:59.632Z,99983.56
2022-12-23T13:32:36.556Z,99972.16
2022-12-23T13:35:17.254Z,99966.91
2022-12-23T13:37:47.950Z,99961.63
2022-12-23T13:40:28.480Z,99967.72
2022-12-23T13:42:59.116Z,99959.81
2022-12-23T13:45:31.791Z,99964.13
2022-12-23T13:48:10.731Z,99954.69
2022-12-23T13:50:45.366Z,99958.16
2022-12-23T13:53:20.488Z,99951.22
2022-12-23T13:55:56.984Z,99957.19
2022-12-23T13:58:26.808Z,99946.78
2022-12-23T14:01:36.739Z,99941.75
2022-12-23T14:04:30.993Z,99940.78
2022-12-23T14:06:59.979Z,99939.13
2022-12-23T14:09:34.380Z,99928.84
2022-12-23T14:12:13.690Z,99926.91
2022-12-23T14:14:47.820Z,99928.16
2022-12-23T14:17:23.738Z,99929.84
2022-12-23T14:20:04.759Z,99928.03
2022-12-23T14:22:54.649Z,99926.06
2022-12-23T14:25:33.760Z,99924.25
2022-12-23T14:28:09.044Z,99917.19
2022-12-23T14:30:38.738Z,99914.69
2022-12-23T14:33:16.966Z,99914.00
2022-12-23T14:35:57.475Z,99908.31
2022-12-23T14:38:31.081Z,99916.25
2022-12-23T14:41:19.559Z,99917.19
2022-12-23T14:43:55.837Z,99917.91
2022-12-23T14:46:57.605Z,99923.19
2022-12-23T14:49:45.023Z,99922.19
2022-12-23T14:52:52.101Z,99918.59
2022-12-23T14:55:41.962Z,99919.56
2022-12-23T14:58:38.239Z,99909.56
2022-12-23T15:01:11.892Z,99889.44
2022-12-23T15:03:45.569Z,99883.88
2022-12-23T15:06:19.402Z,99880.53
2022-12-23T15:08:48.222Z,99864.72
2022-12-23T15:11:21.478Z,99863.06
2022-12-23T15:13:50.165Z,99854.19
2022-12-23T15:16:18.722Z,99846.41
2022-12-23T15:18:56.289Z,99842.94
2022-12-23T15:21:31.161Z,99832.53
2022-12-23T15:23:59.091Z,99829.06
2022-12-23T15:26:29.185Z,99836.97
2022-12-23T15:28:57.675Z,99828.09
2022-12-23T15:31:28.960Z,99829.75
2022-12-23T15:34:06.260Z,99825.47
2022-12-23T15:36:40.418Z,99822.00
2022-12-23T15:39:11.342Z,99832.38
2022-12-23T15:41:46.271Z,99828.09
2022-12-23T15:44:16.658Z,99821.56
2022-12-23T15:46:44.574Z,99830.44
2022-12-23T15:49:12.887Z,99832.09
2022-12-23T15:54:36.797Z,99828.94
2022-12-23T15:57:05.770Z,99845.03
2022-12-23T15:59:36.685Z,99851.97
2022-12-23T16:02:32.707Z,99858.06
2022-12-23T16:05:00.434Z,99851.81
2022-12-23T16:07:33.626Z,99851.38
2022-12-23T16:10:03.193Z,99847.50
2022-12-23T16:12:32.364Z,99858.06
2022-12-23T16:15:01.244Z,99862.22
2022-12-23T16:17:33.202Z,99862.22
2022-12-23T16:20:22.571Z,99863.03
2022-12-23T16:22:53.599Z,99856.94
2022-12-23T16:25:24.694Z,99840.00
2022-12-23T16:27:57.375Z,99845.03
2022-12-23T16:30:29.192Z,99844.72
2022-12-23T16:32:58.692Z,99836.97
2022-12-23T16:35:32.720Z,99825.28
2022-12-23T16:38:13.380Z,99831.69
2022-12-23T16:40:41.308Z,99821.97
2022-12-23T16:43:09.579Z,99810.84
2022-12-23T16:45:38.555Z,99808.34
2022-12-23T16:48:11.919Z,99820.56
2022-12-23T16:50:39.620Z,99820.56
2022-12-23T16:53:07.388Z,99811.97
2022-12-23T16:55:36.481Z,99804.34
2022-12-23T16:58:04.638Z,99807.00
2022-12-23T17:00:32.484Z,99796.72
2022-12-23T17:03:00.291Z,99810.59
2022-12-23T17:05:28.016Z,99822.09
2022-12-23T17:07:55.648Z,99818.53
2022-12-23T17:10:23.615Z,99798.38
2022-12-23T17:12:52.726Z,99805.59
2022-12-23T17:15:22.578Z,99807.41
2022-12-23T17:17:51.966Z,99843.50
2022-12-23T17:20:21.972Z,99830.31
2022-12-23T17:22:52.055Z,99823.38
2022-12-23T17:25:26.295Z,99832.94
2022-12-23T17:27:56.281Z,99842.50
2022-12-23T17:30:25.265Z,99838.22
2022-12-23T17:32:57.066Z,99840.84
2022-12-23T17:35:25.975Z,99837.38
2022-12-23T17:37:54.482Z,99835.59
2022-12-23T17:40:22.380Z,99824.88
2022-12-23T17:42:50.102Z,99832.78
2022-12-23T17:45:25.593Z,99831.00
2022-12-23T17:47:53.546Z,99833.63
2022-12-23T17:50:21.750Z,99824.34
2022-12-23T17:55:48.915Z,99810.75
2022-12-23T17:58:16.785Z,99831.00
